Time;durP1;ratioP1;P1;durP2;ratioP2;P2;SDS_P1;SDS_P2;PMS_P1;PMS_P2;Temp;Humidity;BMP_temperature;BMP_pressure;BME280_temperature;BME280_humidity;BME280_pressure;Samples;Min_cycle;Max_cycle;Signal;HPM_P1;HPM_P2
2022/05/12 00:00:01;;;;;;;4.70;4.27;;;15.10;90.80;;;15.31;59.64;95418.59;5054726;28;20474;-54
2022/05/12 00:02:29;;;;;;;14.57;5.40;;;15.10;91.00;;;15.28;59.25;95422.38;5044925;28;20465;-54
2022/05/12 00:04:57;;;;;;;3.93;3.63;;;15.00;90.60;;;15.23;59.18;95419.38;5045274;28;20509;-54
2022/05/12 00:07:25;;;;;;;6.40;3.77;;;15.00;90.60;;;15.21;59.41;95422.16;5052369;28;20452;-56
2022/05/12 00:09:53;;;;;;;7.30;4.00;;;15.00;90.80;;;15.20;59.54;95424.97;5048427;28;20490;-57
2022/05/12 00:12:20;;;;;;;5.40;3.40;;;15.00;91.00;;;15.19;59.84;95428.59;5043255;28;20989;-57
2022/05/12 00:14:47;;;;;;;6.13;3.70;;;15.00;91.10;;;15.16;59.93;95428.91;5051584;28;20979;-58
2022/05/12 00:17:15;;;;;;;4.23;3.93;;;14.90;91.40;;;15.14;60.02;95430.88;5048060;28;21002;-56
2022/05/12 00:19:43;;;;;;;6.20;3.90;;;14.90;91.40;;;15.12;60.34;95422.25;5051476;28;20464;-55
2022/05/12 00:22:10;;;;;;;6.53;4.83;;;14.90;91.40;;;15.08;60.29;95427.03;5048406;28;20448;-57
2022/05/12 00:24:38;;;;;;;5.70;4.23;;;14.90;91.40;;;15.05;60.07;95422.03;5053554;28;20451;-57
2022/05/12 00:27:05;;;;;;;4.60;3.90;;;14.80;91.40;;;15.02;60.43;95423.16;5046708;28;20490;-57
2022/05/12 00:29:32;;;;;;;5.07;4.60;;;14.80;91.60;;;15.01;60.48;95423.31;5057249;28;20467;-57
2022/05/12 00:32:00;;;;;;;4.83;4.00;;;14.80;91.60;;;14.99;60.87;95423.47;5053319;28;21052;-57
2022/05/12 00:34:27;;;;;;;8.70;4.90;;;14.80;91.80;;;14.97;60.51;95428.09;5046531;28;20463;-58
2022/05/12 00:36:56;;;;;;;4.40;4.00;;;14.80;91.80;;;14.95;60.90;95424.78;5057024;28;20495;-55
2022/05/12 00:39:23;;;;;;;6.77;5.37;;;14.70;91.70;;;14.92;60.86;95421.59;5057057;28;20463;-56
2022/05/12 00:41:50;;;;;;;6.30;5.70;;;14.70;92.20;;;14.91;60.70;95425.25;5049031;28;20632;-58
2022/05/12 00:44:18;;;;;;;7.80;5.90;;;14.70;92.00;;;14.89;60.97;95414.81;5052048;28;20471;-55
2022/05/12 00:46:49;;;;;;;7.50;6.13;;;14.70;92.30;;;14.87;61.02;95414.09;5058136;28;20562;-58
2022/05/12 00:49:20;;;;;;;8.23;7.13;;;14.70;91.90;;;14.84;60.89;95407.31;5055359;28;20458;-54
2022/05/12 00:51:50;;;;;;;8.00;7.20;;;14.60;91.90;;;14.81;60.92;95410.25;5062790;28;20479;-58
2022/05/12 00:54:21;;;;;;;11.23;6.70;;;14.60;92.00;;;14.79;61.13;95419.34;5051715;28;20462;-57
2022/05/12 00:56:49;;;;;;;11.70;8.00;;;14.60;91.90;;;14.74;60.83;95416.31;5056240;28;20963;-56
2022/05/12 00:59:19;;;;;;;10.87;9.67;;;14.50;91.80;;;14.70;60.73;95419.28;5051107;28;20459;-54
2022/05/12 01:01:46;;;;;;;13.73;7.70;;;14.50;91.70;;;14.68;60.76;95426.50;5060882;28;20559;-58
2022/05/12 01:04:14;;;;;;;12.90;7.30;;;14.50;91.90;;;14.64;60.97;95430.47;5051112;28;20851;-57
2022/05/12 01:06:41;;;;;;;11.67;6.70;;;14.40;91.90;;;14.61;60.81;95430.78;5054701;28;20475;-57
2022/05/12 01:09:08;;;;;;;10.33;7.40;;;14.40;92.00;;;14.58;61.12;95424.91;5052788;28;20539;-54
2022/05/12 01:11:37;;;;;;;9.73;6.20;;;14.40;92.10;;;14.56;61.06;95426.88;5053248;28;20504;-56
2022/05/12 01:14:06;;;;;;;13.27;6.80;;;14.30;91.90;;;14.53;60.92;95433.28;5053698;28;20997;-57
2022/05/12 01:16:39;;;;;;;6.20;5.60;;;14.30;92.00;;;14.51;61.13;95432.63;5054855;28;20498;-54
2022/05/12 01:19:08;;;;;;;7.70;5.77;;;14.30;92.10;;;14.49;61.44;95426.66;5049593;28;20948;-56
2022/05/12 01:21:35;;;;;;;9.93;6.40;;;14.30;92.20;;;14.49;61.67;95431.94;5052092;28;20548;-54
2022/05/12 01:24:05;;;;;;;7.03;5.77;;;14.30;92.40;;;14.47;61.33;95429.44;5056146;28;20465;-54
2022/05/12 01:26:33;;;;;;;14.77;6.10;;;14.20;92.50;;;14.45;61.34;95435.84;5050158;28;20906;-56
2022/05/12 01:29:00;;;;;;;7.83;5.60;;;14.30;92.40;;;14.42;61.65;95428.22;5053651;28;20494;-56
2022/05/12 01:31:27;;;;;;;12.63;4.70;;;14.20;92.40;;;14.39;61.62;95428.50;5052783;28;20474;-57
2022/05/12 01:33:55;;;;;;;7.70;6.70;;;14.20;92.40;;;14.36;61.37;95429.66;5054660;28;20508;-58
2022/05/12 01:36:22;;;;;;;8.87;6.40;;;14.20;92.50;;;14.34;61.57;95429.81;5054762;28;20895;-55
2022/05/12 01:38:49;;;;;;;9.33;6.20;;;14.20;92.60;;;14.32;62.10;95429.13;5050767;28;20468;-57
2022/05/12 01:41:18;;;;;;;7.93;6.43;;;14.10;92.70;;;14.31;61.73;95434.56;5052430;28;20483;-54
2022/05/12 01:43:46;;;;;;;19.00;6.03;;;14.10;92.60;;;14.30;61.96;95435.56;5051917;28;20466;-56
2022/05/12 01:46:13;;;;;;;10.10;4.97;;;14.10;92.70;;;14.26;61.36;95440.28;5060713;28;20894;-56
2022/05/12 01:48:41;;;;;;;5.80;5.30;;;14.10;92.40;;;14.23;61.60;95437.94;5058831;28;20466;-55
2022/05/12 01:51:09;;;;;;;10.03;6.00;;;14.10;92.60;;;14.21;61.50;95433.81;5053531;28;20479;-55
2022/05/12 01:53:37;;;;;;;10.03;4.90;;;14.00;92.50;;;14.19;61.87;95441.88;5053879;28;20455;-58
2022/05/12 01:56:05;;;;;;;5.63;5.00;;;14.00;92.70;;;14.16;61.67;95439.53;5050270;28;20545;-55
2022/05/12 01:58:34;;;;;;;4.70;4.03;;;14.00;92.60;;;14.14;61.41;95436.19;5059983;28;20470;-56
2022/05/12 02:01:01;;;;;;;5.27;4.87;;;14.00;92.50;;;14.12;61.37;95441.63;5047845;28;20511;-56
2022/05/12 02:03:28;;;;;;;4.83;4.40;;;13.90;92.40;;;14.10;61.24;95442.78;5054389;28;20456;-56
2022/05/12 02:05:56;;;;;;;13.60;4.30;;;13.90;92.30;;;14.08;61.67;95445.56;5054887;28;20494;-56
2022/05/12 02:08:23;;;;;;;6.43;4.77;;;13.90;92.40;;;14.07;61.83;95445.72;5057492;28;20460;-56
2022/05/12 02:10:51;;;;;;;9.33;3.87;;;13.80;92.60;;;14.04;61.36;95448.66;5058382;28;20491;-58
2022/05/12 02:13:20;;;;;;;5.60;4.20;;;13.80;92.40;;;14.00;61.62;95450.72;5048960;28;20451;-57
2022/05/12 02:15:50;;;;;;;5.00;4.57;;;13.80;92.50;;;13.99;61.84;95452.56;5060763;28;21071;-55
2022/05/12 02:18:20;;;;;;;5.93;4.70;;;13.80;92.60;;;13.96;61.76;95450.19;5052757;28;20781;-53
2022/05/12 02:20:47;;;;;;;5.33;4.63;;;13.80;92.60;;;13.94;61.46;95454.81;5047806;28;20511;-56
2022/05/12 02:23:15;;;;;;;5.20;4.70;;;13.80;92.60;;;13.91;61.58;95455.09;5045815;28;20456;-56
2022/05/12 02:25:42;;;;;;;12.03;5.60;;;13.70;92.50;;;13.90;62.00;95453.44;5048741;28;20480;-58
2022/05/12 02:28:09;;;;;;;6.77;5.37;;;13.70;92.60;;;13.88;61.46;95454.53;5047091;28;20478;-55
2022/05/12 02:30:37;;;;;;;7.37;5.60;;;13.70;92.70;;;13.85;61.73;95453.03;5057607;28;20604;-57
2022/05/12 02:33:06;;;;;;;7.80;6.70;;;13.70;92.90;;;13.85;62.12;95454.84;5054369;28;20471;-56
2022/05/12 02:35:33;;;;;;;10.37;7.60;;;13.70;92.90;;;13.81;62.27;95457.78;5051576;28;20476;-55
2022/05/12 02:38:01;;;;;;;9.53;7.30;;;13.70;92.90;;;13.81;62.45;95470.16;5053733;28;20499;-56
2022/05/12 02:40:28;;;;;;;10.00;6.90;;;13.60;92.90;;;13.80;61.91;95463.19;5058046;28;20486;-55
2022/05/12 02:42:57;;;;;;;8.83;6.70;;;13.60;93.00;;;13.77;62.29;95459.06;5056425;28;20922;-57
2022/05/12 02:45:25;;;;;;;8.03;6.73;;;13.60;93.10;;;13.74;62.29;95458.50;5044227;28;20850;-56
2022/05/12 02:47:52;;;;;;;7.87;6.83;;;13.60;93.10;;;13.71;62.06;95458.78;5052775;28;20463;-58
2022/05/12 02:50:21;;;;;;;7.90;5.93;;;13.60;93.00;;;13.69;62.20;95466.03;5052814;28;20491;-56
2022/05/12 02:52:48;;;;;;;7.57;6.87;;;13.50;92.90;;;13.63;62.15;95460.34;5055811;28;20470;-57
2022/05/12 02:55:16;;;;;;;6.10;5.50;;;13.50;92.90;;;13.65;62.54;95460.22;5055000;28;20486;-56
2022/05/12 02:57:43;;;;;;;6.93;5.07;;;13.50;93.30;;;13.62;62.61;95466.59;5052987;28;20483;-55
2022/05/12 03:00:16;;;;;;;17.40;7.27;;;13.50;93.20;;;13.61;62.25;95464.94;5050336;28;20509;-55
2022/05/12 03:02:44;;;;;;;8.80;6.27;;;13.40;93.10;;;13.60;62.35;95465.06;5047826;28;20538;-57
2022/05/12 03:05:11;;;;;;;8.87;6.60;;;13.40;93.20;;;13.58;62.72;95470.50;5052246;28;20556;-54
2022/05/12 03:07:40;;;;;;;9.23;6.40;;;13.40;93.30;;;13.57;62.60;95471.50;5051750;28;20562;-57
2022/05/12 03:10:09;;;;;;;20.03;6.30;;;13.40;93.40;;;13.56;62.66;95476.94;5046561;28;20503;-54
2022/05/12 03:12:36;;;;;;;8.63;5.67;;;13.40;93.40;;;13.54;62.53;95479.72;5050205;28;20829;-57
2022/05/12 03:15:04;;;;;;;6.10;5.50;;;13.40;93.20;;;13.53;63.09;95477.22;5047067;28;20543;-56
2022/05/12 03:17:32;;;;;;;6.03;5.40;;;13.40;93.40;;;13.51;62.71;95481.78;5046669;28;20539;-57
2022/05/12 03:19:59;;;;;;;6.13;5.17;;;13.30;93.40;;;13.49;62.73;95479.28;5047993;28;20456;-56
2022/05/12 03:22:27;;;;;;;10.63;5.53;;;13.30;93.40;;;13.47;62.72;95481.25;5048766;28;20464;-54
2022/05/12 03:24:55;;;;;;;6.93;6.20;;;13.30;93.40;;;13.45;62.69;95485.84;5053937;28;21037;-55
2022/05/12 03:27:23;;;;;;;6.10;5.53;;;13.30;93.40;;;13.43;62.67;95493.94;5052237;28;20476;-57
2022/05/12 03:29:50;;;;;;;8.40;5.13;;;13.30;93.40;;;13.44;62.99;95500.03;5044158;28;20494;-55
2022/05/12 03:32:17;;;;;;;6.67;6.07;;;13.30;93.40;;;13.44;62.98;95502.69;5049703;28;21021;-59
2022/05/12 03:34:47;;;;;;;9.40;6.00;;;13.30;93.50;;;13.43;62.47;95503.63;5052074;28;20452;-57
2022/05/12 03:37:15;;;;;;;15.53;6.53;;;13.30;93.50;;;13.44;63.01;95500.03;5049239;28;20958;-56
2022/05/12 03:39:42;;;;;;;11.93;5.60;;;13.30;93.50;;;13.43;62.96;95503.63;5048266;28;20878;-58
2022/05/12 03:42:12;;;;;;;8.47;5.80;;;13.30;93.50;;;13.43;63.01;95508.94;5053918;28;22722;-58
2022/05/12 03:44:47;;;;;;;10.97;5.70;;;13.30;93.50;;;13.42;62.39;95505.47;5046321;28;20988;-56
2022/05/12 03:47:15;;;;;;;11.90;5.87;;;13.30;93.40;;;13.40;62.43;95510.06;5051907;28;20970;-56
2022/05/12 03:49:42;;;;;;;14.67;5.77;;;13.20;93.30;;;13.38;62.87;95511.16;5051459;28;20459;-57
2022/05/12 03:52:10;;;;;;;7.20;5.57;;;13.20;93.30;;;13.39;62.88;95513.66;5044640;28;20870;-57
2022/05/12 03:54:37;;;;;;;10.70;5.60;;;13.20;93.50;;;13.40;62.86;95514.50;5052005;28;20455;-58
2022/05/12 03:57:06;;;;;;;10.73;5.80;;;13.20;93.50;;;13.42;62.43;95508.09;5054685;28;20491;-54
2022/05/12 03:59:35;;;;;;;7.47;6.10;;;13.20;93.30;;;13.42;62.38;95516.03;5054400;28;21256;-54
2022/05/12 04:02:02;;;;;;;6.80;5.20;;;13.30;93.10;;;13.41;62.69;95519.63;5055719;28;20543;-57
2022/05/12 04:04:29;;;;;;;9.60;5.70;;;13.30;93.40;;;13.42;62.96;95517.84;5058227;28;20454;-54
2022/05/12 04:06:57;;;;;;;7.17;5.40;;;13.30;93.40;;;13.43;62.30;95520.34;5056046;28;20499;-58
2022/05/12 04:09:24;;;;;;;5.60;5.10;;;13.30;93.20;;;13.44;62.46;95526.47;5061622;28;20486;-54
2022/05/12 04:11:52;;;;;;;12.13;5.77;;;13.30;93.20;;;13.45;62.77;95520.22;5051407;28;20490;-57
2022/05/12 04:14:19;;;;;;;6.67;5.50;;;13.30;93.40;;;13.47;62.74;95520.91;5055829;28;20462;-59
2022/05/12 04:16:48;;;;;;;11.43;6.10;;;13.30;93.40;;;13.50;62.25;95525.91;5050173;28;20491;-59
2022/05/12 04:19:15;;;;;;;7.60;6.43;;;13.30;93.10;;;13.52;61.93;95521.28;5053988;28;20486;-53
2022/05/12 04:21:43;;;;;;;23.03;6.70;;;13.40;93.10;;;13.54;62.24;95521.16;5048444;28;21041;-58
2022/05/12 04:24:10;;;;;;;15.63;6.73;;;13.40;93.00;;;13.56;62.38;95527.97;5048246;28;20558;-53
2022/05/12 04:26:39;;;;;;;14.10;6.40;;;13.40;92.90;;;13.57;62.36;95529.66;5052427;28;20467;-55
2022/05/12 04:29:07;;;;;;;8.50;6.87;;;13.40;92.90;;;13.58;62.03;95531.28;5049707;28;20448;-56
2022/05/12 04:31:34;;;;;;;8.47;6.40;;;13.40;92.90;;;13.60;62.20;95532.00;5043747;28;20560;-58
2022/05/12 04:36:48;;;;;;;11.10;6.37;;;13.50;93.30;;;13.72;62.52;95534.47;5057084;28;21106;-56
2022/05/12 04:39:16;;;;;;;11.87;6.70;;;13.50;93.50;;;13.79;62.35;95535.59;5050554;28;20464;-59
2022/05/12 04:41:43;;;;;;;12.17;7.20;;;13.60;93.40;;;13.87;62.43;95538.34;5063543;28;20475;-57
2022/05/12 04:44:10;;;;;;;17.43;7.67;;;13.70;93.50;;;13.95;62.14;95540.25;5060183;28;20455;-54
2022/05/12 04:46:38;;;;;;;14.30;7.57;;;13.70;93.40;;;14.02;61.96;95532.56;5048754;28;20479;-54
2022/05/12 04:49:07;;;;;;;15.67;8.23;;;13.80;93.20;;;14.07;61.89;95539.13;5048761;28;20456;-56
2022/05/12 04:51:34;;;;;;;15.57;7.10;;;13.80;92.90;;;14.11;61.54;95540.50;5050280;28;20486;-54
2022/05/12 04:54:02;;;;;;;22.90;7.00;;;13.90;92.80;;;14.15;61.46;95547.16;5049796;28;20454;-56
2022/05/12 04:56:29;;;;;;;12.30;5.83;;;13.90;92.70;;;14.21;61.38;95551.03;5057065;28;20499;-54
2022/05/12 04:58:56;;;;;;;14.73;5.97;;;14.00;92.60;;;14.26;60.96;95548.78;5055935;28;20443;-57
2022/05/12 05:01:24;;;;;;;15.53;5.60;;;14.00;92.50;;;14.30;61.46;95552.81;5060166;28;20912;-56
2022/05/12 05:03:51;;;;;;;7.37;6.13;;;14.10;92.50;;;14.35;61.05;95541.78;5063344;28;20459;-56
2022/05/12 05:06:20;;;;;;;24.30;7.90;;;14.10;92.40;;;14.40;61.79;95550.09;5062263;28;20471;-57
2022/05/12 05:08:47;;;;;;;14.90;6.90;;;14.20;92.80;;;14.49;61.60;95545.75;5063180;28;20504;-55
2022/05/12 05:11:14;;;;;;;11.37;7.07;;;14.30;92.90;;;14.58;61.37;95544.88;5057969;28;20463;-57
2022/05/12 05:13:42;;;;;;;8.60;5.50;;;14.30;92.50;;;14.65;61.01;95548.59;5064212;28;21208;-57
2022/05/12 05:16:09;;;;;;;17.00;6.50;;;14.40;92.40;;;14.74;60.79;95546.06;5059933;28;20467;-55
2022/05/12 05:18:38;;;;;;;10.50;5.57;;;14.50;92.30;;;14.83;60.67;95556.59;5065341;28;20458;-55
2022/05/12 05:21:05;;;;;;;15.53;6.27;;;14.60;92.30;;;14.96;60.50;95556.22;5060785;28;20712;-57
2022/05/12 05:23:34;;;;;;;7.40;5.90;;;14.70;92.00;;;15.08;60.05;95556.84;5056401;28;21031;-57
2022/05/12 05:26:01;;;;;;;11.40;6.27;;;14.80;91.90;;;15.22;59.95;95550.19;5064846;28;20732;-57
2022/05/12 05:28:28;;;;;;;8.80;6.00;;;14.90;91.70;;;15.38;59.62;95550.34;5060779;28;20466;-55
2022/05/12 05:30:56;;;;;;;14.67;5.83;;;15.10;91.50;;;15.56;59.38;95546.84;5059289;28;20490;-56
2022/05/12 05:33:25;;;;;;;12.10;6.10;;;15.20;91.50;;;15.75;59.23;95549.31;5053862;28;20460;-56
2022/05/12 05:35:52;;;;;;;13.77;7.23;;;15.40;91.40;;;15.93;58.91;95557.25;5060132;28;20863;-59
2022/05/12 05:38:20;;;;;;;9.20;6.93;;;15.60;91.10;;;16.11;58.30;95556.34;5061678;28;20499;-56
2022/05/12 05:40:48;;;;;;;14.33;7.07;;;15.70;90.90;;;16.28;58.30;95562.56;5062712;28;20987;-56
2022/05/12 05:43:16;;;;;;;15.80;6.67;;;15.90;90.80;;;16.46;58.48;95558.00;5055731;28;20834;-57
2022/05/12 05:45:44;;;;;;;9.33;5.93;;;16.10;90.70;;;16.69;57.59;95554.78;5058982;28;20482;-57
2022/05/12 05:48:12;;;;;;;9.43;6.50;;;16.30;90.20;;;16.88;56.99;95559.03;5059918;28;20506;-56
2022/05/12 05:53:28;;;;;;;7.17;6.03;;;16.60;88.90;;;17.32;56.04;95557.94;5054453;28;21015;-56
2022/05/12 05:56:00;;;;;;;9.20;5.83;;;16.90;88.50;;;17.52;56.04;95567.28;5062999;28;20467;-56
2022/05/12 05:58:28;;;;;;;9.03;5.83;;;17.10;88.20;;;17.75;55.90;95561.28;5056775;28;20475;-56
2022/05/12 06:00:55;;;;;;;14.00;6.40;;;17.30;87.50;;;17.97;55.39;95558.97;5063275;28;20550;-55
2022/05/12 06:03:23;;;;;;;18.97;7.10;;;17.50;86.40;;;18.17;54.96;95557.63;5059490;28;20451;-57
2022/05/12 06:05:50;;;;;;;16.30;6.93;;;17.70;85.40;;;18.37;54.10;95557.22;5060437;28;20475;-55
2022/05/12 06:08:20;;;;;;;17.67;6.73;;;17.90;84.90;;;18.55;53.95;95557.81;5058118;28;21020;-56
2022/05/12 06:10:48;;;;;;;7.70;6.70;;;18.10;84.20;;;18.70;53.89;95557.94;5057053;28;20466;-56
2022/05/12 06:13:17;;;;;;;11.53;6.73;;;18.30;83.10;;;18.86;53.85;95554.38;5063423;28;20932;-56
2022/05/12 06:15:44;;;;;;;10.53;6.90;;;18.40;83.00;;;19.06;52.83;95556.63;5060480;28;20562;-55
2022/05/12 06:18:15;;;;;;;13.47;6.77;;;18.60;82.20;;;19.16;52.81;95550.06;5058273;28;20494;-57
2022/05/12 06:20:43;;;;;;;21.83;7.90;;;18.70;81.70;;;19.30;52.83;95548.47;5056300;28;20463;-55
2022/05/12 06:23:10;;;;;;;10.47;6.80;;;18.80;81.50;;;19.41;52.57;95549.91;5061119;28;20462;-54
2022/05/12 06:25:38;;;;;;;6.27;5.77;;;18.90;81.50;;;19.55;52.47;95558.97;5058703;28;20595;-56
2022/05/12 06:28:06;;;;;;;12.20;6.20;;;19.00;80.00;;;19.72;51.43;95554.34;5051927;28;20462;-54
2022/05/12 06:30:35;;;;;;;9.80;7.10;;;19.30;79.50;;;19.87;51.55;95557.06;5054463;28;20503;-56
2022/05/12 06:33:02;;;;;;;7.80;5.40;;;19.30;78.90;;;19.96;51.42;95555.97;5057494;28;20453;-57
2022/05/12 06:35:30;;;;;;;8.47;6.20;;;19.50;78.40;;;20.11;50.79;95557.81;5053311;28;20496;-57
2022/05/12 06:37:57;;;;;;;12.23;5.77;;;19.60;77.80;;;20.25;51.00;95559.72;5056653;28;20889;-54
2022/05/12 06:40:25;;;;;;;7.70;5.63;;;19.70;77.30;;;20.41;50.24;95553.34;5047976;28;20467;-56
2022/05/12 06:42:53;;;;;;;9.43;4.80;;;19.90;76.10;;;20.56;49.77;95554.19;5060798;28;20533;-57
2022/05/12 06:45:22;;;;;;;19.33;5.50;;;20.10;75.20;;;20.75;49.26;95566.16;5054795;28;20467;-57
2022/05/12 06:47:52;;;;;;;10.10;5.40;;;20.20;74.00;;;20.93;49.24;95548.91;5054853;28;20807;-56
2022/05/12 06:50:21;;;;;;;11.60;5.17;;;20.40;73.70;;;21.12;48.78;95550.97;5055686;28;20528;-55
2022/05/12 06:52:48;;;;;;;8.37;5.73;;;20.60;73.00;;;21.33;48.10;95554.69;5064208;28;20458;-56
2022/05/12 06:55:17;;;;;;;8.13;5.00;;;20.80;72.10;;;21.53;48.01;95540.72;5057742;28;20789;-58
2022/05/12 06:57:44;;;;;;;10.00;4.90;;;21.00;71.10;;;21.72;47.78;95547.25;5058975;28;20545;-57
2022/05/12 07:00:16;;;;;;;15.90;6.63;;;21.20;70.40;;;21.93;47.29;95536.53;5054513;28;21057;-56
2022/05/12 07:02:44;;;;;;;7.33;5.03;;;21.40;70.00;;;22.08;47.07;95535.63;5055900;28;20951;-55
2022/05/12 07:05:13;;;;;;;10.63;5.30;;;21.60;68.80;;;22.23;46.21;95547.06;5060896;28;20501;-56
2022/05/12 07:07:42;;;;;;;9.13;4.90;;;21.70;67.60;;;22.34;46.77;95543.03;5057453;28;20452;-57
2022/05/12 07:10:10;;;;;;;7.00;5.60;;;21.80;67.40;;;22.46;45.82;95540.63;5060212;28;20514;-54
2022/05/12 07:12:37;;;;;;;8.83;6.40;;;22.00;66.80;;;22.61;45.97;95538.63;5058129;28;20448;-54
2022/05/12 07:15:06;;;;;;;15.43;5.53;;;22.10;66.20;;;22.76;45.77;95549.25;5059459;28;20467;-57
2022/05/12 07:17:37;;;;;;;7.10;4.80;;;22.20;65.20;;;22.88;45.35;95544.97;5061006;28;20998;-56
2022/05/12 07:28:20;;;;;;;6.47;4.50;;;22.60;62.70;;;23.21;44.25;95543.47;5060556;28;20446;-56
2022/05/12 07:31:03;;;;;;;11.53;4.57;;;22.70;62.80;;;23.30;44.48;95536.03;5059376;28;20871;-56
2022/05/12 07:33:31;;;;;;;16.67;3.73;;;22.80;62.90;;;23.43;44.28;95534.19;5054529;28;20463;-56
2022/05/12 07:35:58;;;;;;;11.43;5.63;;;22.90;62.20;;;23.60;44.37;95533.81;5058775;28;20847;-56
2022/05/12 07:38:27;;;;;;;5.10;4.60;;;23.00;62.60;;;23.71;43.77;95533.22;5056114;28;20498;-57
2022/05/12 07:40:54;;;;;;;9.47;4.90;;;23.20;61.60;;;23.87;43.61;95537.38;5060204;28;20474;-56
2022/05/12 07:43:22;;;;;;;12.73;5.77;;;23.20;60.40;;;24.04;43.27;95531.59;5063738;28;20789;-56
2022/05/12 07:45:49;;;;;;;11.63;5.37;;;23.50;60.00;;;24.22;42.93;95531.78;5057981;28;20467;-56
2022/05/12 07:48:17;;;;;;;10.30;4.90;;;23.70;59.90;;;24.41;43.61;95527.38;5056920;28;20948;-56
2022/05/12 07:50:44;;;;;;;6.60;4.93;;;23.80;60.20;;;24.58;42.85;95530.47;5060327;28;20479;-57
2022/05/12 07:53:11;;;;;;;9.47;5.53;;;24.00;59.90;;;24.76;42.41;95524.44;5059629;28;20451;-55
2022/05/12 07:55:41;;;;;;;10.77;5.60;;;24.10;59.20;;;24.97;42.09;95528.72;5057478;28;20474;-56
2022/05/12 07:58:08;;;;;;;9.43;5.73;;;24.40;58.80;;;25.05;42.24;95516.84;5046899;28;20487;-55
2022/05/12 08:00:36;;;;;;;11.77;6.40;;;24.50;58.30;;;25.06;41.99;95519.31;5057006;28;20511;-56
2022/05/12 08:03:04;;;;;;;9.87;6.93;;;24.50;57.60;;;25.06;42.07;95513.94;5057747;28;20463;-56
2022/05/12 08:05:31;;;;;;;7.30;5.23;;;24.50;57.10;;;25.11;42.00;95515.16;5060358;28;20463;-58
2022/05/12 08:07:58;;;;;;;11.83;5.67;;;24.50;57.50;;;25.25;41.28;95524.81;5057123;28;20871;-56
2022/05/12 08:10:25;;;;;;;9.80;4.50;;;24.70;57.10;;;25.46;41.41;95512.13;5059088;28;20479;-55
2022/05/12 08:12:54;;;;;;;11.30;6.23;;;24.80;57.10;;;25.71;41.08;95512.94;5058488;28;20830;-57
2022/05/12 08:15:25;;;;;;;10.10;4.53;;;25.10;56.70;;;25.99;40.84;95510.91;5059567;28;20482;-58
2022/05/12 08:17:52;;;;;;;8.70;3.97;;;25.30;56.10;;;26.25;40.63;95516.03;5049101;28;20490;-57
2022/05/12 08:20:19;;;;;;;12.87;4.40;;;25.60;55.60;;;26.43;40.23;95507.16;5058854;28;20527;-57
2022/05/12 08:22:47;;;;;;;6.00;5.03;;;25.90;55.20;;;26.62;39.79;95502.59;5056714;28;20943;-56
2022/05/12 08:25:14;;;;;;;7.50;4.50;;;26.00;54.70;;;26.84;39.74;95507.56;5053584;28;20842;-57
2022/05/12 08:27:41;;;;;;;6.40;4.03;;;26.20;54.00;;;27.03;39.46;95497.56;5058416;28;20459;-56
2022/05/12 08:30:15;;;;;;;7.40;4.70;;;26.40;53.30;;;27.25;38.90;95502.47;5048758;28;20470;-56
2022/05/12 08:32:43;;;;;;;4.10;3.60;;;26.70;52.80;;;27.43;38.61;95505.13;5060421;28;20458;-57
2022/05/12 08:35:10;;;;;;;5.83;4.73;;;26.80;52.20;;;27.65;38.08;95496.50;5053096;28;20478;-55
2022/05/12 08:37:38;;;;;;;10.30;4.27;;;27.00;51.80;;;27.86;37.98;95503.25;5057396;28;20520;-56
2022/05/12 08:40:06;;;;;;;5.80;3.80;;;27.30;51.00;;;28.08;37.51;95498.13;5058463;28;20461;-55
2022/05/12 08:42:36;;;;;;;6.53;5.27;;;27.50;50.60;;;28.29;36.19;95502.13;5054286;28;20876;-57
2022/05/12 08:45:07;;;;;;;4.50;3.50;;;27.70;49.30;;;28.48;36.48;95502.81;5053193;28;20470;-56
2022/05/12 08:47:42;;;;;;;4.47;3.97;;;27.90;48.90;;;28.63;36.29;95491.53;5057024;28;20450;-58
2022/05/12 08:50:20;;;;;;;5.90;4.33;;;28.00;48.40;;;28.70;35.98;95502.22;5047429;28;20489;-57
2022/05/12 08:52:50;;;;;;;11.17;4.40;;;28.20;47.70;;;28.71;35.14;95495.75;5053414;28;20547;-58
2022/05/12 08:55:20;;;;;;;4.50;4.10;;;28.20;47.00;;;28.68;34.74;95496.22;5053720;28;20463;-56
2022/05/12 08:57:51;;;;;;;3.20;2.97;;;28.20;46.60;;;28.65;34.10;95494.81;5051579;28;20475;-58
2022/05/12 09:00:19;;;;;;;4.03;3.73;;;28.20;45.90;;;28.57;33.96;95492.44;5063188;28;20871;-55
2022/05/12 09:02:55;;;;;;;9.00;3.77;;;28.10;45.10;;;28.47;33.28;95500.34;5055241;28;20517;-57
2022/05/12 09:05:27;;;;;;;3.47;3.27;;;28.00;45.10;;;28.48;34.26;95491.97;5064752;28;20469;-58
2022/05/12 09:07:58;;;;;;;10.33;3.20;;;27.90;44.70;;;28.57;33.87;95497.88;5057218;28;20439;-57
2022/05/12 09:10:46;;;;;;;5.83;4.37;;;28.00;45.40;;;28.72;33.60;95490.09;5064138;28;20472;-57
2022/05/12 09:13:16;;;;;;;3.57;2.53;;;28.10;44.90;;;28.92;33.54;95489.69;5051781;28;20461;-58
2022/05/12 09:15:49;;;;;;;3.63;3.33;;;28.30;44.50;;;29.08;33.36;95492.69;5058410;28;20553;-56
2022/05/12 09:18:20;;;;;;;4.77;3.63;;;28.40;43.90;;;29.22;32.47;95488.66;5060025;28;20482;-60
2022/05/12 09:20:47;;;;;;;8.47;5.20;;;28.60;43.40;;;29.28;32.85;95493.13;5056797;28;20474;-55
2022/05/12 09:23:14;;;;;;;4.07;3.80;;;28.70;43.20;;;29.32;32.69;95491.56;5061503;28;20454;-57
2022/05/12 09:25:43;;;;;;;9.50;3.17;;;28.80;43.70;;;29.30;33.17;95490.16;5049880;28;20490;-57
2022/05/12 09:28:29;;;;;;;3.60;3.30;;;28.80;43.50;;;29.21;32.11;95486.19;5062356;28;20903;-58
2022/05/12 09:31:01;;;;;;;4.93;3.43;;;28.70;42.90;;;29.17;32.73;95491.22;5061161;28;20527;-56
2022/05/12 09:33:33;;;;;;;7.23;3.67;;;28.60;42.60;;;29.20;32.28;95490.78;5055303;28;20534;-57
2022/05/12 09:36:02;;;;;;;5.87;3.27;;;28.60;43.10;;;29.31;32.60;95480.94;5058712;28;20467;-57
2022/05/12 09:38:30;;;;;;;36.07;5.03;;;28.70;42.40;;;29.39;32.20;95493.28;5053175;28;20495;-56
2022/05/12 09:40:57;;;;;;;5.47;4.17;;;28.80;43.00;;;29.45;32.57;95492.31;5060855;28;20485;-56
2022/05/12 09:43:31;;;;;;;4.70;3.60;;;28.80;42.70;;;29.53;31.84;95477.53;5055225;28;20979;-55
2022/05/12 09:46:14;;;;;;;3.57;3.27;;;29.00;42.20;;;29.51;31.20;95480.50;5056612;28;20486;-56
2022/05/12 09:48:43;;;;;;;3.23;2.63;;;28.90;41.40;;;29.48;31.52;95483.69;5050998;28;20488;-57
2022/05/12 09:51:32;;;;;;;12.57;3.50;;;28.90;41.40;;;29.48;31.20;95472.84;5057336;28;20474;-57
2022/05/12 09:54:23;;;;;;;3.97;3.27;;;28.90;41.50;;;29.56;30.69;95471.63;5063539;28;20539;-55
2022/05/12 09:57:00;;;;;;;6.17;3.20;;;29.00;40.80;;;29.57;30.39;95468.69;5059790;28;20468;-58
2022/05/12 09:59:29;;;;;;;8.90;3.17;;;29.00;41.80;;;29.59;31.32;95465.72;5051144;28;20478;-55
2022/05/12 10:01:58;;;;;;;3.90;3.60;;;29.00;41.30;;;29.61;31.92;95464.41;5062702;28;20474;-57
2022/05/12 10:10:15;;;;;;;10.27;4.27;;;29.20;41.30;;;29.83;31.46;95461.00;5058460;28;21021;-56
2022/05/12 10:13:00;;;;;;;3.33;3.13;;;29.30;40.90;;;29.90;31.30;95461.66;5056709;28;20462;-56
2022/05/12 10:15:29;;;;;;;5.30;2.50;;;29.30;40.60;;;29.93;31.10;95453.03;5064128;28;20466;-58
2022/05/12 10:18:00;;;;;;;3.83;3.37;;;29.40;40.20;;;29.92;30.86;95443.25;5060876;28;20458;-58
2022/05/12 10:20:29;;;;;;;5.07;3.10;;;29.30;40.30;;;29.93;30.18;95438.63;5057514;28;20485;-55
2022/05/12 10:23:01;;;;;;;4.17;2.87;;;29.40;39.70;;;29.88;30.85;95430.44;5058976;28;20446;-57
2022/05/12 10:25:47;;;;;;;4.83;2.97;;;29.30;39.70;;;29.85;30.08;95435.28;5059854;28;20220;-55
2022/05/12 10:28:19;;;;;;;4.57;2.57;;;29.30;39.10;;;29.81;30.33;95431.41;5063816;28;20577;-56
2022/05/12 10:30:50;;;;;;;3.30;2.60;;;29.30;39.10;;;29.75;30.21;95424.25;5057614;28;21407;-57
2022/05/12 10:33:30;;;;;;;3.60;3.30;;;29.20;38.60;;;29.69;29.26;95423.31;5060620;28;20443;-56
2022/05/12 10:36:17;;;;;;;2.40;2.20;;;29.20;38.80;;;29.61;29.45;95414.81;5062049;28;20466;-58
2022/05/12 10:38:49;;;;;;;3.77;2.87;;;29.10;38.10;;;29.52;29.87;95417.09;5060361;28;20473;-55
2022/05/12 10:41:19;;;;;;;2.80;2.60;;;29.00;38.40;;;29.47;29.39;95415.13;5056572;28;21017;-59
2022/05/12 10:44:05;;;;;;;3.17;2.97;;;29.00;38.70;;;29.43;28.34;95413.16;5055836;28;20459;-56